CES420 RJBB-VHHH
Flight info
| Callsign | CES420 |
|---|---|
| Flight time | N/A |
| Altitude | 40000 |
| Route | OBLUR1 OBLUR Y236 IVROG Y340 RUSUD Y75 IGBOD Y34 HKC Y50 IGMON A1 ELATO V522 ABBEY ABBEY4A |
| Aircraft | A359/H-SDE2E3GHIJ3J4J5LM1ORWXY/LB1D1 |
Departure
| Time | N/A |
|---|---|
| Airport | Kansai International Airport (RJBB) |
Arrival
| Time | 2026-05-06 03:51 |
|---|---|
| Airport | Hong Kong International Airport (VHHH) |
| Time | Latitude | Longitude | Altitude | Speed | Heading |
|---|---|---|---|---|---|
| 2026-05-06 03:16 | 22.31289 | 116.48667 | 40005 ft | 449 kts | 271° |
| 2026-05-06 03:17 | 22.31130 | 116.41906 | 40004 ft | 449 kts | 271° |
| 2026-05-06 03:17 | 22.30970 | 116.35206 | 40004 ft | 449 kts | 271° |
| 2026-05-06 03:18 | 22.30806 | 116.28449 | 40002 ft | 449 kts | 271° |
| 2026-05-06 03:18 | 22.30640 | 116.21740 | 40004 ft | 449 kts | 271° |
| 2026-05-06 03:18 | 22.30555 | 116.18374 | 39861 ft | 444 kts | 271° |
| 2026-05-06 03:19 | 22.30470 | 116.15045 | 39279 ft | 443 kts | 270° |
| 2026-05-06 03:19 | 22.30385 | 116.11711 | 38622 ft | 444 kts | 270° |
| 2026-05-06 03:19 | 22.30300 | 116.08362 | 37805 ft | 445 kts | 270° |
| 2026-05-06 03:19 | 22.30214 | 116.05006 | 36939 ft | 448 kts | 270° |
| 2026-05-06 03:20 | 22.30039 | 115.98297 | 35256 ft | 455 kts | 270° |
| 2026-05-06 03:20 | 22.29979 | 115.96026 | 34694 ft | 457 kts | 270° |
| 2026-05-06 03:20 | 22.29924 | 115.93924 | 34180 ft | 460 kts | 269° |
| 2026-05-06 03:21 | 22.29831 | 115.90461 | 33212 ft | 464 kts | 269° |
| 2026-05-06 03:21 | 22.29737 | 115.86956 | 32161 ft | 469 kts | 269° |
| 2026-05-06 03:21 | 22.29641 | 115.83404 | 31108 ft | 475 kts | 269° |
| 2026-05-06 03:21 | 22.29546 | 115.79834 | 30066 ft | 482 kts | 269° |
| 2026-05-06 03:22 | 22.29451 | 115.76197 | 28913 ft | 486 kts | 268° |
| 2026-05-06 03:22 | 22.29353 | 115.72541 | 28047 ft | 485 kts | 268° |
| 2026-05-06 03:22 | 22.29255 | 115.68907 | 27288 ft | 482 kts | 268° |
| 2026-05-06 03:22 | 22.29158 | 115.65301 | 26618 ft | 477 kts | 268° |
| 2026-05-06 03:23 | 22.29062 | 115.61786 | 25946 ft | 473 kts | 268° |
| 2026-05-06 03:23 | 22.28965 | 115.58228 | 25171 ft | 472 kts | 268° |
| 2026-05-06 03:23 | 22.28867 | 115.54696 | 24506 ft | 468 kts | 268° |
| 2026-05-06 03:23 | 22.28770 | 115.51189 | 23871 ft | 464 kts | 268° |
| 2026-05-06 03:24 | 22.28673 | 115.47716 | 23135 ft | 461 kts | 268° |
| 2026-05-06 03:24 | 22.28576 | 115.44313 | 22459 ft | 456 kts | 268° |
| 2026-05-06 03:24 | 22.28478 | 115.40908 | 21788 ft | 450 kts | 268° |
| 2026-05-06 03:24 | 22.28382 | 115.37555 | 21204 ft | 443 kts | 268° |
| 2026-05-06 03:25 | 22.28286 | 115.34254 | 20573 ft | 437 kts | 268° |
| 2026-05-06 03:25 | 22.28192 | 115.30990 | 19943 ft | 431 kts | 268° |
| 2026-05-06 03:25 | 22.28094 | 115.27784 | 19364 ft | 425 kts | 268° |
| 2026-05-06 03:25 | 22.27995 | 115.24612 | 18758 ft | 420 kts | 268° |
| 2026-05-06 03:26 | 22.27897 | 115.21478 | 18122 ft | 415 kts | 268° |
| 2026-05-06 03:26 | 22.27801 | 115.18377 | 17417 ft | 410 kts | 268° |
| 2026-05-06 03:26 | 22.27705 | 115.15314 | 16708 ft | 406 kts | 268° |
| 2026-05-06 03:26 | 22.27610 | 115.12283 | 16025 ft | 402 kts | 268° |
| 2026-05-06 03:27 | 22.27516 | 115.09311 | 15373 ft | 398 kts | 268° |
| 2026-05-06 03:27 | 22.27422 | 115.06340 | 14715 ft | 394 kts | 268° |
| 2026-05-06 03:27 | 22.27328 | 115.03389 | 14063 ft | 389 kts | 268° |
| 2026-05-06 03:27 | 22.27234 | 115.00478 | 13353 ft | 386 kts | 268° |
| 2026-05-06 03:28 | 22.27141 | 114.97591 | 12639 ft | 382 kts | 268° |
| 2026-05-06 03:28 | 22.27049 | 114.94738 | 11891 ft | 379 kts | 268° |
| 2026-05-06 03:28 | 22.26959 | 114.91963 | 11433 ft | 369 kts | 268° |
| 2026-05-06 03:28 | 22.26873 | 114.89240 | 11163 ft | 354 kts | 268° |
| 2026-05-06 03:29 | 22.26787 | 114.86653 | 11030 ft | 336 kts | 268° |
| 2026-05-06 03:29 | 22.26704 | 114.84189 | 10903 ft | 320 kts | 268° |
| 2026-05-06 03:29 | 22.26624 | 114.81804 | 10733 ft | 317 kts | 268° |
| 2026-05-06 03:29 | 22.26384 | 114.79438 | 10494 ft | 319 kts | 257° |
| 2026-05-06 03:30 | 22.25491 | 114.77258 | 10257 ft | 320 kts | 236° |
| 2026-05-06 03:30 | 22.24022 | 114.75486 | 10022 ft | 320 kts | 226° |
| 2026-05-06 03:30 | 22.22413 | 114.73847 | 9842 ft | 312 kts | 225° |
| 2026-05-06 03:30 | 22.20850 | 114.72271 | 9608 ft | 300 kts | 225° |
| 2026-05-06 03:31 | 22.19356 | 114.70755 | 9398 ft | 289 kts | 225° |
| 2026-05-06 03:31 | 22.17938 | 114.69308 | 9265 ft | 280 kts | 225° |
| 2026-05-06 03:31 | 22.16521 | 114.67858 | 9136 ft | 281 kts | 225° |
| 2026-05-06 03:31 | 22.15101 | 114.66400 | 8977 ft | 281 kts | 225° |
| 2026-05-06 03:32 | 22.13686 | 114.64949 | 8751 ft | 279 kts | 225° |
| 2026-05-06 03:32 | 22.12285 | 114.63512 | 8499 ft | 278 kts | 225° |
| 2026-05-06 03:32 | 22.10905 | 114.62096 | 8250 ft | 277 kts | 225° |
| 2026-05-06 03:32 | 22.09513 | 114.60668 | 8013 ft | 275 kts | 225° |
| 2026-05-06 03:33 | 22.08140 | 114.59260 | 7766 ft | 270 kts | 225° |
| 2026-05-06 03:33 | 22.06777 | 114.57862 | 7519 ft | 269 kts | 224° |
| 2026-05-06 03:33 | 22.05408 | 114.56457 | 7281 ft | 272 kts | 224° |
| 2026-05-06 03:33 | 22.04036 | 114.55051 | 7067 ft | 271 kts | 224° |
| 2026-05-06 03:34 | 22.02709 | 114.53618 | 6833 ft | 269 kts | 229° |
| 2026-05-06 03:34 | 22.01745 | 114.51918 | 6602 ft | 272 kts | 245° |
| 2026-05-06 03:34 | 22.01004 | 114.50033 | 6383 ft | 273 kts | 246° |
| 2026-05-06 03:34 | 22.00295 | 114.48137 | 6146 ft | 272 kts | 246° |
| 2026-05-06 03:35 | 21.99584 | 114.46254 | 5892 ft | 270 kts | 246° |
| 2026-05-06 03:35 | 21.98870 | 114.44372 | 5651 ft | 270 kts | 246° |
| 2026-05-06 03:35 | 21.98159 | 114.42504 | 5414 ft | 268 kts | 245° |
| 2026-05-06 03:35 | 21.97460 | 114.40671 | 5167 ft | 267 kts | 245° |
| 2026-05-06 03:36 | 21.96747 | 114.38814 | 4972 ft | 269 kts | 246° |
| 2026-05-06 03:36 | 21.96035 | 114.36950 | 4841 ft | 268 kts | 246° |
| 2026-05-06 03:36 | 21.95321 | 114.35090 | 4731 ft | 268 kts | 246° |
| 2026-05-06 03:36 | 21.94609 | 114.33235 | 4595 ft | 269 kts | 246° |
| 2026-05-06 03:37 | 21.93893 | 114.31366 | 4472 ft | 268 kts | 245° |
| 2026-05-06 03:37 | 21.93181 | 114.29509 | 4343 ft | 268 kts | 246° |
| 2026-05-06 03:37 | 21.92475 | 114.27672 | 4219 ft | 269 kts | 245° |
| 2026-05-06 03:37 | 21.91759 | 114.25805 | 4099 ft | 269 kts | 244° |
| 2026-05-06 03:38 | 21.91038 | 114.23932 | 3984 ft | 270 kts | 245° |
| 2026-05-06 03:38 | 21.90312 | 114.22051 | 3863 ft | 272 kts | 245° |
| 2026-05-06 03:38 | 21.89742 | 114.20122 | 3740 ft | 276 kts | 258° |
| 2026-05-06 03:38 | 21.89888 | 114.18076 | 3628 ft | 277 kts | 288° |
| 2026-05-06 03:39 | 21.90720 | 114.16192 | 3496 ft | 280 kts | 299° |
| 2026-05-06 03:39 | 21.91687 | 114.14368 | 3387 ft | 278 kts | 299° |
| 2026-05-06 03:39 | 21.92634 | 114.12577 | 3259 ft | 278 kts | 299° |
| 2026-05-06 03:39 | 21.93595 | 114.10748 | 3133 ft | 281 kts | 299° |
| 2026-05-06 03:40 | 21.94550 | 114.08917 | 3027 ft | 278 kts | 299° |
| 2026-05-06 03:40 | 21.95493 | 114.07100 | 2908 ft | 277 kts | 300° |
| 2026-05-06 03:40 | 21.96442 | 114.05281 | 2807 ft | 278 kts | 300° |
| 2026-05-06 03:40 | 21.97391 | 114.03499 | 2713 ft | 277 kts | 300° |
| 2026-05-06 03:41 | 21.98334 | 114.01670 | 2622 ft | 279 kts | 299° |
| 2026-05-06 03:41 | 21.99270 | 113.99837 | 2513 ft | 277 kts | 299° |
| 2026-05-06 03:41 | 22.00202 | 113.98019 | 2426 ft | 277 kts | 299° |
| 2026-05-06 03:41 | 22.01119 | 113.96233 | 2323 ft | 274 kts | 299° |
| 2026-05-06 03:42 | 22.02042 | 113.94437 | 2226 ft | 274 kts | 299° |
| 2026-05-06 03:42 | 22.02971 | 113.92631 | 2119 ft | 275 kts | 300° |
| 2026-05-06 03:42 | 22.03901 | 113.90824 | 2031 ft | 274 kts | 300° |
| 2026-05-06 03:42 | 22.04812 | 113.89042 | 1974 ft | 271 kts | 300° |
| 2026-05-06 03:43 | 22.05736 | 113.87248 | 1992 ft | 274 kts | 300° |
| 2026-05-06 03:43 | 22.06651 | 113.85472 | 1990 ft | 273 kts | 300° |
| 2026-05-06 03:43 | 22.07570 | 113.83686 | 1989 ft | 272 kts | 300° |
| 2026-05-06 03:43 | 22.08492 | 113.81894 | 1985 ft | 274 kts | 300° |
| 2026-05-06 03:44 | 22.09397 | 113.80135 | 1978 ft | 265 kts | 300° |
| 2026-05-06 03:44 | 22.10288 | 113.78463 | 1975 ft | 247 kts | 305° |
| 2026-05-06 03:44 | 22.11450 | 113.77246 | 1981 ft | 222 kts | 332° |
| 2026-05-06 03:44 | 22.12747 | 113.76520 | 1978 ft | 203 kts | 338° |
| 2026-05-06 03:45 | 22.14028 | 113.75891 | 1990 ft | 202 kts | 338° |
| 2026-05-06 03:45 | 22.15313 | 113.75262 | 1990 ft | 202 kts | 338° |
| 2026-05-06 03:45 | 22.16584 | 113.74635 | 1991 ft | 203 kts | 338° |
| 2026-05-06 03:45 | 22.17870 | 113.73996 | 1988 ft | 204 kts | 338° |
| 2026-05-06 03:46 | 22.19162 | 113.73354 | 1988 ft | 204 kts | 338° |
| 2026-05-06 03:46 | 22.20466 | 113.72749 | 1943 ft | 203 kts | 345° |
| 2026-05-06 03:46 | 22.21821 | 113.72700 | 1844 ft | 195 kts | 23° |
| 2026-05-06 03:46 | 22.22991 | 113.73360 | 1768 ft | 189 kts | 37° |
| 2026-05-06 03:47 | 22.24090 | 113.74153 | 1699 ft | 190 kts | 36° |
| 2026-05-06 03:47 | 22.25198 | 113.74954 | 1690 ft | 193 kts | 36° |
| 2026-05-06 03:47 | 22.26275 | 113.75801 | 1688 ft | 190 kts | 45° |
| 2026-05-06 03:47 | 22.26994 | 113.76977 | 1643 ft | 187 kts | 70° |
| 2026-05-06 03:48 | 22.27428 | 113.78300 | 1594 ft | 187 kts | 75° |
| 2026-05-06 03:48 | 22.27822 | 113.79629 | 1584 ft | 181 kts | 72° |
| 2026-05-06 03:48 | 22.28217 | 113.80811 | 1593 ft | 153 kts | 72° |
| 2026-05-06 03:48 | 22.28545 | 113.81824 | 1560 ft | 136 kts | 73° |
| 2026-05-06 03:49 | 22.28841 | 113.82776 | 1393 ft | 134 kts | 75° |
| 2026-05-06 03:49 | 22.29139 | 113.83725 | 1223 ft | 133 kts | 73° |
| 2026-05-06 03:49 | 22.29442 | 113.84665 | 1041 ft | 131 kts | 75° |
| 2026-05-06 03:49 | 22.29739 | 113.85591 | 880 ft | 130 kts | 73° |
| 2026-05-06 03:50 | 22.30039 | 113.86524 | 728 ft | 133 kts | 73° |
| 2026-05-06 03:50 | 22.30342 | 113.87469 | 535 ft | 130 kts | 71° |
| 2026-05-06 03:50 | 22.30631 | 113.88370 | 373 ft | 125 kts | 70° |
| 2026-05-06 03:50 | 22.30913 | 113.89246 | 212 ft | 123 kts | 71° |
| 2026-05-06 03:51 | 22.31200 | 113.90131 | 44 ft | 126 kts | 72° |
| 2026-05-06 03:51 | 22.31446 | 113.90902 | 38 ft | 84 kts | 71° |
| 2026-05-06 03:51 | 22.31577 | 113.91306 | 38 ft | 31 kts | 71° |
| 2026-05-06 03:51 | 22.31604 | 113.91389 | 38 ft | 0 kts | 70° |